sensor_id;sensor_type;location;lat;lon;timestamp;P1;durP1;ratioP1;P2;durP2;ratioP2
3841;SDS011;1936;47.074;15.336;2023-03-23T00:00:14;13.27;;;7.65;;
3841;SDS011;1936;47.074;15.336;2023-03-23T00:02:17;21.45;;;10.55;;
3841;SDS011;1936;47.074;15.336;2023-03-23T00:04:20;19.88;;;10.63;;
3841;SDS011;1936;47.074;15.336;2023-03-23T00:06:23;20.88;;;10.20;;
3841;SDS011;1936;47.074;15.336;2023-03-23T00:08:26;18.45;;;8.80;;
3841;SDS011;1936;47.074;15.336;2023-03-23T00:10:30;14.35;;;8.50;;
3841;SDS011;1936;47.074;15.336;2023-03-23T00:12:33;22.40;;;9.57;;
3841;SDS011;1936;47.074;15.336;2023-03-23T00:14:35;16.67;;;8.63;;
3841;SDS011;1936;47.074;15.336;2023-03-23T00:16:41;14.43;;;7.75;;
3841;SDS011;1936;47.074;15.336;2023-03-23T00:18:45;10.75;;;7.38;;
3841;SDS011;1936;47.074;15.336;2023-03-23T00:20:48;10.75;;;6.35;;
3841;SDS011;1936;47.074;15.336;2023-03-23T00:22:51;6.18;;;5.57;;
3841;SDS011;1936;47.074;15.336;2023-03-23T00:24:59;9.05;;;5.55;;
3841;SDS011;1936;47.074;15.336;2023-03-23T00:27:04;8.93;;;4.95;;
3841;SDS011;1936;47.074;15.336;2023-03-23T00:29:07;6.32;;;5.32;;
3841;SDS011;1936;47.074;15.336;2023-03-23T00:31:10;4.95;;;4.45;;
3841;SDS011;1936;47.074;15.336;2023-03-23T00:33:12;8.88;;;4.97;;
3841;SDS011;1936;47.074;15.336;2023-03-23T00:35:17;5.80;;;4.82;;
3841;SDS011;1936;47.074;15.336;2023-03-23T00:37:20;5.07;;;4.50;;
3841;SDS011;1936;47.074;15.336;2023-03-23T00:39:22;5.10;;;4.05;;
3841;SDS011;1936;47.074;15.336;2023-03-23T00:41:26;5.97;;;3.65;;
3841;SDS011;1936;47.074;15.336;2023-03-23T00:43:30;5.03;;;4.15;;
3841;SDS011;1936;47.074;15.336;2023-03-23T00:45:36;4.40;;;4.00;;
3841;SDS011;1936;47.074;15.336;2023-03-23T00:47:38;5.32;;;4.72;;
3841;SDS011;1936;47.074;15.336;2023-03-23T00:49:46;4.35;;;3.95;;
3841;SDS011;1936;47.074;15.336;2023-03-23T00:51:52;4.00;;;3.60;;
3841;SDS011;1936;47.074;15.336;2023-03-23T00:53:55;5.22;;;4.47;;
3841;SDS011;1936;47.074;15.336;2023-03-23T00:55:58;5.80;;;4.65;;
3841;SDS011;1936;47.074;15.336;2023-03-23T00:58:00;9.88;;;5.00;;
3841;SDS011;1936;47.074;15.336;2023-03-23T01:00:05;5.53;;;5.03;;
3841;SDS011;1936;47.074;15.336;2023-03-23T01:02:11;4.35;;;3.95;;
3841;SDS011;1936;47.074;15.336;2023-03-23T01:04:14;5.53;;;3.72;;
3841;SDS011;1936;47.074;15.336;2023-03-23T01:06:16;4.22;;;3.83;;
3841;SDS011;1936;47.074;15.336;2023-03-23T01:08:19;5.68;;;5.18;;
3841;SDS011;1936;47.074;15.336;2023-03-23T01:10:22;5.95;;;4.38;;
3841;SDS011;1936;47.074;15.336;2023-03-23T01:12:26;5.90;;;4.47;;
3841;SDS011;1936;47.074;15.336;2023-03-23T01:14:29;8.77;;;5.43;;
3841;SDS011;1936;47.074;15.336;2023-03-23T01:16:33;7.22;;;4.60;;
3841;SDS011;1936;47.074;15.336;2023-03-23T01:18:36;6.75;;;4.88;;
3841;SDS011;1936;47.074;15.336;2023-03-23T01:20:39;5.13;;;4.00;;
3841;SDS011;1936;47.074;15.336;2023-03-23T01:22:42;9.35;;;5.07;;
3841;SDS011;1936;47.074;15.336;2023-03-23T01:24:45;6.25;;;4.95;;
3841;SDS011;1936;47.074;15.336;2023-03-23T01:26:47;4.88;;;4.45;;
3841;SDS011;1936;47.074;15.336;2023-03-23T01:28:50;5.18;;;4.57;;
3841;SDS011;1936;47.074;15.336;2023-03-23T01:30:53;6.45;;;4.60;;
3841;SDS011;1936;47.074;15.336;2023-03-23T01:32:57;4.78;;;3.78;;
3841;SDS011;1936;47.074;15.336;2023-03-23T01:34:59;11.57;;;5.20;;
3841;SDS011;1936;47.074;15.336;2023-03-23T01:37:02;4.95;;;4.45;;
3841;SDS011;1936;47.074;15.336;2023-03-23T01:39:04;8.27;;;4.72;;
3841;SDS011;1936;47.074;15.336;2023-03-23T01:41:08;6.60;;;4.43;;
3841;SDS011;1936;47.074;15.336;2023-03-23T01:43:10;4.30;;;3.75;;
3841;SDS011;1936;47.074;15.336;2023-03-23T01:45:21;4.63;;;4.15;;
3841;SDS011;1936;47.074;15.336;2023-03-23T01:47:24;6.32;;;4.55;;
3841;SDS011;1936;47.074;15.336;2023-03-23T01:49:29;5.22;;;4.47;;
3841;SDS011;1936;47.074;15.336;2023-03-23T01:51:34;5.18;;;4.68;;
3841;SDS011;1936;47.074;15.336;2023-03-23T01:53:38;10.13;;;4.13;;
3841;SDS011;1936;47.074;15.336;2023-03-23T01:55:43;7.13;;;4.75;;
3841;SDS011;1936;47.074;15.336;2023-03-23T01:57:48;7.50;;;5.38;;
3841;SDS011;1936;47.074;15.336;2023-03-23T01:59:51;5.30;;;4.05;;
3841;SDS011;1936;47.074;15.336;2023-03-23T02:01:54;5.85;;;4.65;;
3841;SDS011;1936;47.074;15.336;2023-03-23T02:03:57;5.63;;;4.00;;
3841;SDS011;1936;47.074;15.336;2023-03-23T02:06:02;6.00;;;4.97;;
3841;SDS011;1936;47.074;15.336;2023-03-23T02:08:04;6.82;;;4.88;;
3841;SDS011;1936;47.074;15.336;2023-03-23T02:10:08;5.78;;;4.22;;
3841;SDS011;1936;47.074;15.336;2023-03-23T02:12:11;6.80;;;4.25;;
3841;SDS011;1936;47.074;15.336;2023-03-23T02:14:14;4.60;;;4.07;;
3841;SDS011;1936;47.074;15.336;2023-03-23T02:16:20;9.27;;;5.20;;
3841;SDS011;1936;47.074;15.336;2023-03-23T02:18:29;8.15;;;3.88;;
3841;SDS011;1936;47.074;15.336;2023-03-23T02:20:39;7.63;;;4.20;;
3841;SDS011;1936;47.074;15.336;2023-03-23T02:22:57;4.50;;;4.10;;
3841;SDS011;1936;47.074;15.336;2023-03-23T02:25:12;4.63;;;4.07;;
3841;SDS011;1936;47.074;15.336;2023-03-23T02:27:20;4.68;;;3.85;;
3841;SDS011;1936;47.074;15.336;2023-03-23T02:29:34;6.82;;;4.40;;
3841;SDS011;1936;47.074;15.336;2023-03-23T02:31:53;4.50;;;4.05;;
3841;SDS011;1936;47.074;15.336;2023-03-23T02:34:00;8.90;;;3.88;;
3841;SDS011;1936;47.074;15.336;2023-03-23T02:36:05;5.75;;;4.15;;
3841;SDS011;1936;47.074;15.336;2023-03-23T02:38:11;6.38;;;4.60;;
3841;SDS011;1936;47.074;15.336;2023-03-23T02:40:16;7.75;;;3.88;;
3841;SDS011;1936;47.074;15.336;2023-03-23T02:42:21;7.85;;;5.03;;
3841;SDS011;1936;47.074;15.336;2023-03-23T02:44:26;7.82;;;4.68;;
3841;SDS011;1936;47.074;15.336;2023-03-23T02:46:30;5.47;;;4.20;;
3841;SDS011;1936;47.074;15.336;2023-03-23T02:48:33;6.40;;;4.40;;
3841;SDS011;1936;47.074;15.336;2023-03-23T02:50:37;8.32;;;4.38;;
3841;SDS011;1936;47.074;15.336;2023-03-23T02:52:41;6.70;;;4.00;;
3841;SDS011;1936;47.074;15.336;2023-03-23T02:54:44;4.35;;;3.67;;
3841;SDS011;1936;47.074;15.336;2023-03-23T02:56:48;7.75;;;4.68;;
3841;SDS011;1936;47.074;15.336;2023-03-23T02:58:52;6.32;;;4.45;;
3841;SDS011;1936;47.074;15.336;2023-03-23T03:00:54;4.55;;;4.07;;
3841;SDS011;1936;47.074;15.336;2023-03-23T03:02:59;10.98;;;4.78;;
3841;SDS011;1936;47.074;15.336;2023-03-23T03:05:04;6.97;;;3.97;;
3841;SDS011;1936;47.074;15.336;2023-03-23T03:07:20;5.80;;;4.25;;
3841;SDS011;1936;47.074;15.336;2023-03-23T03:09:26;10.88;;;4.22;;
3841;SDS011;1936;47.074;15.336;2023-03-23T03:11:33;5.45;;;4.18;;
3841;SDS011;1936;47.074;15.336;2023-03-23T03:13:39;12.15;;;5.00;;
3841;SDS011;1936;47.074;15.336;2023-03-23T03:15:48;5.60;;;3.88;;
3841;SDS011;1936;47.074;15.336;2023-03-23T03:17:55;6.07;;;4.30;;
3841;SDS011;1936;47.074;15.336;2023-03-23T03:20:02;6.65;;;4.72;;
3841;SDS011;1936;47.074;15.336;2023-03-23T03:22:10;6.82;;;5.13;;
3841;SDS011;1936;47.074;15.336;2023-03-23T03:24:15;5.47;;;4.38;;
3841;SDS011;1936;47.074;15.336;2023-03-23T03:26:18;4.95;;;4.28;;
3841;SDS011;1936;47.074;15.336;2023-03-23T03:28:22;5.50;;;4.88;;
3841;SDS011;1936;47.074;15.336;2023-03-23T03:30:25;5.95;;;4.68;;
3841;SDS011;1936;47.074;15.336;2023-03-23T03:32:29;5.22;;;4.53;;
3841;SDS011;1936;47.074;15.336;2023-03-23T03:34:34;7.53;;;5.20;;
3841;SDS011;1936;47.074;15.336;2023-03-23T03:36:36;8.20;;;4.80;;
3841;SDS011;1936;47.074;15.336;2023-03-23T03:38:42;9.20;;;5.13;;
3841;SDS011;1936;47.074;15.336;2023-03-23T03:40:46;7.35;;;4.93;;
3841;SDS011;1936;47.074;15.336;2023-03-23T03:42:49;9.20;;;4.30;;
3841;SDS011;1936;47.074;15.336;2023-03-23T03:44:51;8.82;;;5.32;;
3841;SDS011;1936;47.074;15.336;2023-03-23T03:46:54;8.13;;;5.60;;
3841;SDS011;1936;47.074;15.336;2023-03-23T03:48:56;5.28;;;4.75;;
3841;SDS011;1936;47.074;15.336;2023-03-23T03:50:59;7.72;;;5.15;;
3841;SDS011;1936;47.074;15.336;2023-03-23T03:53:01;5.05;;;4.53;;
3841;SDS011;1936;47.074;15.336;2023-03-23T03:55:04;6.18;;;4.43;;
3841;SDS011;1936;47.074;15.336;2023-03-23T03:57:08;11.52;;;5.30;;
3841;SDS011;1936;47.074;15.336;2023-03-23T03:59:12;6.55;;;5.57;;
3841;SDS011;1936;47.074;15.336;2023-03-23T04:01:16;8.35;;;4.82;;
3841;SDS011;1936;47.074;15.336;2023-03-23T04:03:18;6.45;;;5.07;;
3841;SDS011;1936;47.074;15.336;2023-03-23T04:05:21;6.00;;;4.88;;
3841;SDS011;1936;47.074;15.336;2023-03-23T04:07:24;7.20;;;4.47;;
3841;SDS011;1936;47.074;15.336;2023-03-23T04:09:29;7.32;;;4.90;;
3841;SDS011;1936;47.074;15.336;2023-03-23T04:11:32;5.55;;;4.35;;
3841;SDS011;1936;47.074;15.336;2023-03-23T04:13:36;7.80;;;4.20;;
3841;SDS011;1936;47.074;15.336;2023-03-23T04:15:38;7.50;;;5.45;;
3841;SDS011;1936;47.074;15.336;2023-03-23T04:17:41;4.90;;;4.50;;
3841;SDS011;1936;47.074;15.336;2023-03-23T04:19:43;8.18;;;5.60;;
3841;SDS011;1936;47.074;15.336;2023-03-23T04:21:47;5.47;;;4.57;;
3841;SDS011;1936;47.074;15.336;2023-03-23T04:23:50;8.25;;;4.40;;
3841;SDS011;1936;47.074;15.336;2023-03-23T04:25:53;7.88;;;5.68;;
3841;SDS011;1936;47.074;15.336;2023-03-23T04:27:57;7.47;;;5.00;;
3841;SDS011;1936;47.074;15.336;2023-03-23T04:30:04;6.60;;;4.88;;
3841;SDS011;1936;47.074;15.336;2023-03-23T04:32:07;6.63;;;5.07;;
3841;SDS011;1936;47.074;15.336;2023-03-23T04:34:09;6.50;;;5.35;;
3841;SDS011;1936;47.074;15.336;2023-03-23T04:36:13;8.60;;;5.65;;
3841;SDS011;1936;47.074;15.336;2023-03-23T04:38:16;6.47;;;5.78;;
3841;SDS011;1936;47.074;15.336;2023-03-23T04:40:21;6.50;;;4.60;;
3841;SDS011;1936;47.074;15.336;2023-03-23T04:42:24;8.02;;;4.82;;
3841;SDS011;1936;47.074;15.336;2023-03-23T04:44:27;7.00;;;5.32;;
3841;SDS011;1936;47.074;15.336;2023-03-23T04:46:30;5.97;;;4.85;;
3841;SDS011;1936;47.074;15.336;2023-03-23T04:48:33;7.40;;;4.93;;
3841;SDS011;1936;47.074;15.336;2023-03-23T04:50:36;5.80;;;5.30;;
3841;SDS011;1936;47.074;15.336;2023-03-23T04:52:38;6.03;;;5.43;;
3841;SDS011;1936;47.074;15.336;2023-03-23T04:54:45;6.97;;;5.03;;
3841;SDS011;1936;47.074;15.336;2023-03-23T04:56:48;6.28;;;5.38;;
3841;SDS011;1936;47.074;15.336;2023-03-23T04:58:50;5.72;;;4.60;;
3841;SDS011;1936;47.074;15.336;2023-03-23T05:00:53;6.78;;;5.72;;
3841;SDS011;1936;47.074;15.336;2023-03-23T05:02:57;5.65;;;5.15;;
3841;SDS011;1936;47.074;15.336;2023-03-23T05:05:00;5.88;;;5.10;;
3841;SDS011;1936;47.074;15.336;2023-03-23T05:07:03;5.95;;;5.00;;
3841;SDS011;1936;47.074;15.336;2023-03-23T05:09:06;10.25;;;6.28;;
3841;SDS011;1936;47.074;15.336;2023-03-23T05:11:09;5.25;;;4.72;;
3841;SDS011;1936;47.074;15.336;2023-03-23T05:13:12;7.38;;;5.40;;
3841;SDS011;1936;47.074;15.336;2023-03-23T05:15:15;11.40;;;5.95;;
3841;SDS011;1936;47.074;15.336;2023-03-23T05:17:17;8.68;;;5.10;;
3841;SDS011;1936;47.074;15.336;2023-03-23T05:19:21;6.47;;;5.47;;
3841;SDS011;1936;47.074;15.336;2023-03-23T05:21:24;7.53;;;5.70;;
3841;SDS011;1936;47.074;15.336;2023-03-23T05:23:27;9.13;;;4.85;;
3841;SDS011;1936;47.074;15.336;2023-03-23T05:25:31;8.05;;;5.30;;
3841;SDS011;1936;47.074;15.336;2023-03-23T05:27:36;7.38;;;6.05;;
3841;SDS011;1936;47.074;15.336;2023-03-23T05:29:42;6.22;;;5.05;;
3841;SDS011;1936;47.074;15.336;2023-03-23T05:31:46;7.15;;;5.55;;
3841;SDS011;1936;47.074;15.336;2023-03-23T05:33:48;9.77;;;5.53;;
3841;SDS011;1936;47.074;15.336;2023-03-23T05:35:55;7.93;;;5.63;;
3841;SDS011;1936;47.074;15.336;2023-03-23T05:37:58;7.00;;;5.38;;
3841;SDS011;1936;47.074;15.336;2023-03-23T05:40:02;8.23;;;5.90;;
3841;SDS011;1936;47.074;15.336;2023-03-23T05:42:06;6.47;;;5.53;;
3841;SDS011;1936;47.074;15.336;2023-03-23T05:44:09;11.75;;;6.30;;
3841;SDS011;1936;47.074;15.336;2023-03-23T05:46:13;8.68;;;5.97;;
3841;SDS011;1936;47.074;15.336;2023-03-23T05:48:16;13.45;;;6.40;;
3841;SDS011;1936;47.074;15.336;2023-03-23T05:50:18;7.15;;;5.90;;
3841;SDS011;1936;47.074;15.336;2023-03-23T05:52:23;8.75;;;6.20;;
3841;SDS011;1936;47.074;15.336;2023-03-23T05:54:26;7.80;;;5.68;;
3841;SDS011;1936;47.074;15.336;2023-03-23T05:56:28;6.97;;;5.75;;
3841;SDS011;1936;47.074;15.336;2023-03-23T05:58:32;5.60;;;5.10;;
3841;SDS011;1936;47.074;15.336;2023-03-23T06:00:34;7.15;;;5.28;;
3841;SDS011;1936;47.074;15.336;2023-03-23T06:02:37;8.55;;;5.35;;
3841;SDS011;1936;47.074;15.336;2023-03-23T06:04:39;7.30;;;5.65;;
3841;SDS011;1936;47.074;15.336;2023-03-23T06:06:42;6.40;;;5.45;;
3841;SDS011;1936;47.074;15.336;2023-03-23T06:08:47;9.55;;;6.10;;
3841;SDS011;1936;47.074;15.336;2023-03-23T06:10:50;12.37;;;6.97;;
3841;SDS011;1936;47.074;15.336;2023-03-23T06:12:52;10.38;;;5.75;;
3841;SDS011;1936;47.074;15.336;2023-03-23T06:14:55;8.63;;;5.05;;
3841;SDS011;1936;47.074;15.336;2023-03-23T06:16:58;7.35;;;5.43;;
3841;SDS011;1936;47.074;15.336;2023-03-23T06:19:00;11.25;;;6.00;;
3841;SDS011;1936;47.074;15.336;2023-03-23T06:21:04;9.35;;;5.68;;
3841;SDS011;1936;47.074;15.336;2023-03-23T06:23:07;6.87;;;5.80;;
3841;SDS011;1936;47.074;15.336;2023-03-23T06:25:11;8.80;;;6.67;;
3841;SDS011;1936;47.074;15.336;2023-03-23T06:27:13;8.70;;;5.75;;
3841;SDS011;1936;47.074;15.336;2023-03-23T06:29:16;7.70;;;5.57;;
3841;SDS011;1936;47.074;15.336;2023-03-23T06:31:19;6.07;;;4.70;;
3841;SDS011;1936;47.074;15.336;2023-03-23T06:33:21;7.20;;;5.50;;
3841;SDS011;1936;47.074;15.336;2023-03-23T06:35:24;7.73;;;4.63;;
3841;SDS011;1936;47.074;15.336;2023-03-23T06:37:27;6.87;;;5.80;;
3841;SDS011;1936;47.074;15.336;2023-03-23T06:39:30;6.47;;;5.03;;
3841;SDS011;1936;47.074;15.336;2023-03-23T06:41:34;8.07;;;4.60;;
3841;SDS011;1936;47.074;15.336;2023-03-23T06:43:36;10.87;;;4.53;;
3841;SDS011;1936;47.074;15.336;2023-03-23T06:45:39;5.40;;;4.83;;
3841;SDS011;1936;47.074;15.336;2023-03-23T06:47:42;8.97;;;5.40;;
3841;SDS011;1936;47.074;15.336;2023-03-23T06:49:45;7.53;;;4.87;;
3841;SDS011;1936;47.074;15.336;2023-03-23T06:51:47;5.97;;;4.87;;
3841;SDS011;1936;47.074;15.336;2023-03-23T06:53:50;12.33;;;4.90;;
3841;SDS011;1936;47.074;15.336;2023-03-23T06:55:52;8.43;;;6.20;;
3841;SDS011;1936;47.074;15.336;2023-03-23T06:57:56;8.70;;;6.03;;
3841;SDS011;1936;47.074;15.336;2023-03-23T07:00:01;7.13;;;5.23;;
3841;SDS011;1936;47.074;15.336;2023-03-23T07:02:05;10.37;;;5.20;;
3841;SDS011;1936;47.074;15.336;2023-03-23T07:04:08;12.97;;;5.47;;
3841;SDS011;1936;47.074;15.336;2023-03-23T07:06:10;8.40;;;4.60;;
3841;SDS011;1936;47.074;15.336;2023-03-23T07:08:13;8.33;;;4.90;;
3841;SDS011;1936;47.074;15.336;2023-03-23T07:10:16;6.87;;;5.10;;
3841;SDS011;1936;47.074;15.336;2023-03-23T07:12:18;7.23;;;4.97;;
3841;SDS011;1936;47.074;15.336;2023-03-23T07:14:23;7.27;;;4.77;;
3841;SDS011;1936;47.074;15.336;2023-03-23T07:16:26;6.80;;;4.90;;
3841;SDS011;1936;47.074;15.336;2023-03-23T07:18:29;9.93;;;5.10;;
3841;SDS011;1936;47.074;15.336;2023-03-23T07:20:31;11.73;;;6.20;;
3841;SDS011;1936;47.074;15.336;2023-03-23T07:22:34;6.73;;;5.20;;
3841;SDS011;1936;47.074;15.336;2023-03-23T07:24:37;9.90;;;5.27;;
3841;SDS011;1936;47.074;15.336;2023-03-23T07:26:39;7.43;;;5.80;;
3841;SDS011;1936;47.074;15.336;2023-03-23T07:28:42;12.97;;;5.73;;
3841;SDS011;1936;47.074;15.336;2023-03-23T07:30:47;8.87;;;5.00;;
3841;SDS011;1936;47.074;15.336;2023-03-23T07:32:50;6.47;;;5.53;;
3841;SDS011;1936;47.074;15.336;2023-03-23T07:34:52;6.37;;;4.40;;
3841;SDS011;1936;47.074;15.336;2023-03-23T07:36:56;7.27;;;4.87;;
3841;SDS011;1936;47.074;15.336;2023-03-23T07:38:59;3.97;;;3.63;;
3841;SDS011;1936;47.074;15.336;2023-03-23T07:41:01;5.80;;;5.13;;
3841;SDS011;1936;47.074;15.336;2023-03-23T07:43:04;4.90;;;4.40;;
3841;SDS011;1936;47.074;15.336;2023-03-23T07:45:07;8.60;;;5.20;;
3841;SDS011;1936;47.074;15.336;2023-03-23T07:47:11;8.50;;;4.70;;
3841;SDS011;1936;47.074;15.336;2023-03-23T07:49:14;8.90;;;5.37;;
3841;SDS011;1936;47.074;15.336;2023-03-23T07:51:17;9.20;;;6.07;;
3841;SDS011;1936;47.074;15.336;2023-03-23T07:53:20;5.73;;;5.23;;
3841;SDS011;1936;47.074;15.336;2023-03-23T07:55:23;6.17;;;4.60;;
3841;SDS011;1936;47.074;15.336;2023-03-23T07:57:27;5.20;;;4.60;;
3841;SDS011;1936;47.074;15.336;2023-03-23T07:59:30;5.20;;;4.47;;
3841;SDS011;1936;47.074;15.336;2023-03-23T08:01:34;8.37;;;5.30;;
3841;SDS011;1936;47.074;15.336;2023-03-23T08:03:38;5.80;;;4.80;;
3841;SDS011;1936;47.074;15.336;2023-03-23T08:05:40;6.07;;;4.90;;
3841;SDS011;1936;47.074;15.336;2023-03-23T08:07:43;6.73;;;4.80;;
3841;SDS011;1936;47.074;15.336;2023-03-23T08:09:46;8.03;;;4.97;;
3841;SDS011;1936;47.074;15.336;2023-03-23T08:11:48;8.63;;;4.93;;
3841;SDS011;1936;47.074;15.336;2023-03-23T08:13:52;5.77;;;4.63;;
3841;SDS011;1936;47.074;15.336;2023-03-23T08:15:54;7.83;;;4.83;;
3841;SDS011;1936;47.074;15.336;2023-03-23T08:17:58;5.63;;;5.10;;
3841;SDS011;1936;47.074;15.336;2023-03-23T08:20:03;6.60;;;4.57;;
3841;SDS011;1936;47.074;15.336;2023-03-23T08:22:11;8.10;;;5.53;;
3841;SDS011;1936;47.074;15.336;2023-03-23T08:24:14;8.90;;;4.73;;
3841;SDS011;1936;47.074;15.336;2023-03-23T08:26:16;5.53;;;4.07;;
3841;SDS011;1936;47.074;15.336;2023-03-23T08:28:19;5.70;;;5.10;;
3841;SDS011;1936;47.074;15.336;2023-03-23T08:30:21;11.43;;;5.20;;
3841;SDS011;1936;47.074;15.336;2023-03-23T08:32:24;5.90;;;5.40;;
3841;SDS011;1936;47.074;15.336;2023-03-23T08:34:27;5.20;;;4.30;;
3841;SDS011;1936;47.074;15.336;2023-03-23T08:36:32;6.07;;;4.40;;
3841;SDS011;1936;47.074;15.336;2023-03-23T08:38:35;6.40;;;4.63;;
3841;SDS011;1936;47.074;15.336;2023-03-23T08:40:38;7.80;;;5.43;;
3841;SDS011;1936;47.074;15.336;2023-03-23T08:42:41;6.40;;;4.20;;
3841;SDS011;1936;47.074;15.336;2023-03-23T08:44:44;13.70;;;4.87;;
3841;SDS011;1936;47.074;15.336;2023-03-23T08:46:46;7.27;;;4.60;;
3841;SDS011;1936;47.074;15.336;2023-03-23T08:48:49;5.63;;;4.90;;
3841;SDS011;1936;47.074;15.336;2023-03-23T08:50:53;5.63;;;4.30;;
3841;SDS011;1936;47.074;15.336;2023-03-23T08:52:57;8.23;;;4.57;;
3841;SDS011;1936;47.074;15.336;2023-03-23T08:55:00;6.67;;;4.90;;
3841;SDS011;1936;47.074;15.336;2023-03-23T08:57:03;6.03;;;4.80;;
3841;SDS011;1936;47.074;15.336;2023-03-23T08:59:06;7.20;;;4.73;;
3841;SDS011;1936;47.074;15.336;2023-03-23T09:01:09;5.47;;;4.53;;
3841;SDS011;1936;47.074;15.336;2023-03-23T09:03:12;8.90;;;4.77;;
3841;SDS011;1936;47.074;15.336;2023-03-23T09:05:15;5.37;;;4.07;;
3841;SDS011;1936;47.074;15.336;2023-03-23T09:07:18;5.20;;;4.70;;
3841;SDS011;1936;47.074;15.336;2023-03-23T09:09:22;9.13;;;5.20;;
3841;SDS011;1936;47.074;15.336;2023-03-23T09:11:25;11.00;;;4.47;;
3841;SDS011;1936;47.074;15.336;2023-03-23T09:13:27;6.73;;;4.60;;
3841;SDS011;1936;47.074;15.336;2023-03-23T09:15:30;5.37;;;4.60;;
3841;SDS011;1936;47.074;15.336;2023-03-23T09:17:32;7.43;;;4.80;;
3841;SDS011;1936;47.074;15.336;2023-03-23T09:19:35;6.40;;;4.30;;
3841;SDS011;1936;47.074;15.336;2023-03-23T09:21:37;6.63;;;4.97;;
3841;SDS011;1936;47.074;15.336;2023-03-23T09:23:40;4.97;;;4.47;;
3841;SDS011;1936;47.074;15.336;2023-03-23T09:25:45;5.03;;;4.50;;
3841;SDS011;1936;47.074;15.336;2023-03-23T09:27:48;6.37;;;4.00;;
3841;SDS011;1936;47.074;15.336;2023-03-23T09:29:53;5.47;;;4.97;;
3841;SDS011;1936;47.074;15.336;2023-03-23T09:31:56;10.20;;;4.20;;
3841;SDS011;1936;47.074;15.336;2023-03-23T09:34:00;5.67;;;5.07;;
3841;SDS011;1936;47.074;15.336;2023-03-23T09:36:04;5.20;;;4.70;;
3841;SDS011;1936;47.074;15.336;2023-03-23T09:38:09;7.63;;;5.43;;
3841;SDS011;1936;47.074;15.336;2023-03-23T09:40:13;4.80;;;4.30;;
3841;SDS011;1936;47.074;15.336;2023-03-23T09:42:23;6.10;;;4.60;;
3841;SDS011;1936;47.074;15.336;2023-03-23T09:44:31;7.17;;;3.90;;
3841;SDS011;1936;47.074;15.336;2023-03-23T09:46:41;4.80;;;3.53;;
3841;SDS011;1936;47.074;15.336;2023-03-23T09:48:49;6.80;;;4.60;;
3841;SDS011;1936;47.074;15.336;2023-03-23T09:50:55;4.83;;;4.33;;
3841;SDS011;1936;47.074;15.336;2023-03-23T09:53:00;4.73;;;3.93;;
3841;SDS011;1936;47.074;15.336;2023-03-23T09:55:03;6.40;;;4.77;;
3841;SDS011;1936;47.074;15.336;2023-03-23T09:57:10;5.43;;;4.23;;
3841;SDS011;1936;47.074;15.336;2023-03-23T09:59:18;6.60;;;4.57;;
3841;SDS011;1936;47.074;15.336;2023-03-23T10:01:22;4.50;;;4.10;;
3841;SDS011;1936;47.074;15.336;2023-03-23T10:03:27;4.00;;;3.60;;
3841;SDS011;1936;47.074;15.336;2023-03-23T10:05:34;4.40;;;4.00;;
3841;SDS011;1936;47.074;15.336;2023-03-23T10:07:37;5.67;;;4.80;;
3841;SDS011;1936;47.074;15.336;2023-03-23T10:09:40;4.63;;;3.40;;
3841;SDS011;1936;47.074;15.336;2023-03-23T10:11:45;4.07;;;3.67;;
3841;SDS011;1936;47.074;15.336;2023-03-23T10:13:52;4.80;;;4.30;;
3841;SDS011;1936;47.074;15.336;2023-03-23T10:16:01;6.10;;;4.33;;
3841;SDS011;1936;47.074;15.336;2023-03-23T10:18:08;4.50;;;4.10;;
3841;SDS011;1936;47.074;15.336;2023-03-23T10:20:19;4.67;;;4.20;;
3841;SDS011;1936;47.074;15.336;2023-03-23T10:22:23;4.13;;;3.73;;
3841;SDS011;1936;47.074;15.336;2023-03-23T10:24:29;4.80;;;3.70;;
3841;SDS011;1936;47.074;15.336;2023-03-23T10:26:37;4.30;;;3.40;;
3841;SDS011;1936;47.074;15.336;2023-03-23T10:28:42;4.30;;;3.40;;
3841;SDS011;1936;47.074;15.336;2023-03-23T10:30:46;4.40;;;4.07;;
3841;SDS011;1936;47.074;15.336;2023-03-23T10:32:53;4.80;;;4.27;;
3841;SDS011;1936;47.074;15.336;2023-03-23T10:34:57;4.20;;;3.20;;
3841;SDS011;1936;47.074;15.336;2023-03-23T10:37:03;4.10;;;3.73;;
3841;SDS011;1936;47.074;15.336;2023-03-23T10:39:08;4.63;;;3.43;;
3841;SDS011;1936;47.074;15.336;2023-03-23T10:41:14;4.63;;;3.90;;
3841;SDS011;1936;47.074;15.336;2023-03-23T10:43:17;7.43;;;3.47;;
3841;SDS011;1936;47.074;15.336;2023-03-23T10:45:22;4.50;;;4.10;;
3841;SDS011;1936;47.074;15.336;2023-03-23T10:47:25;5.83;;;3.90;;
3841;SDS011;1936;47.074;15.336;2023-03-23T10:49:32;4.33;;;3.87;;
3841;SDS011;1936;47.074;15.336;2023-03-23T10:51:37;5.13;;;4.20;;
3841;SDS011;1936;47.074;15.336;2023-03-23T10:53:43;5.77;;;4.20;;
3841;SDS011;1936;47.074;15.336;2023-03-23T10:55:47;4.80;;;4.30;;
3841;SDS011;1936;47.074;15.336;2023-03-23T10:57:59;3.93;;;3.53;;
3841;SDS011;1936;47.074;15.336;2023-03-23T11:00:03;4.70;;;4.30;;
3841;SDS011;1936;47.074;15.336;2023-03-23T11:02:11;7.17;;;3.70;;
3841;SDS011;1936;47.074;15.336;2023-03-23T11:04:16;4.93;;;3.87;;
3841;SDS011;1936;47.074;15.336;2023-03-23T11:06:22;6.03;;;4.07;;
3841;SDS011;1936;47.074;15.336;2023-03-23T11:08:25;8.90;;;3.97;;
3841;SDS011;1936;47.074;15.336;2023-03-23T11:10:34;4.77;;;4.37;;
3841;SDS011;1936;47.074;15.336;2023-03-23T11:12:37;8.33;;;4.97;;
3841;SDS011;1936;47.074;15.336;2023-03-23T11:14:40;7.23;;;4.23;;
3841;SDS011;1936;47.074;15.336;2023-03-23T11:16:45;5.93;;;4.13;;
3841;SDS011;1936;47.074;15.336;2023-03-23T11:18:48;6.67;;;5.00;;
3841;SDS011;1936;47.074;15.336;2023-03-23T11:20:53;4.30;;;3.90;;
3841;SDS011;1936;47.074;15.336;2023-03-23T11:22:58;4.10;;;3.80;;
3841;SDS011;1936;47.074;15.336;2023-03-23T11:25:01;8.07;;;4.87;;
3841;SDS011;1936;47.074;15.336;2023-03-23T11:27:04;5.40;;;4.90;;
3841;SDS011;1936;47.074;15.336;2023-03-23T11:29:09;7.00;;;4.77;;
3841;SDS011;1936;47.074;15.336;2023-03-23T11:31:12;5.63;;;4.63;;
3841;SDS011;1936;47.074;15.336;2023-03-23T11:33:15;6.07;;;4.33;;
3841;SDS011;1936;47.074;15.336;2023-03-23T11:35:20;11.13;;;5.07;;
3841;SDS011;1936;47.074;15.336;2023-03-23T11:37:25;7.10;;;5.47;;
3841;SDS011;1936;47.074;15.336;2023-03-23T11:39:33;6.50;;;5.00;;
3841;SDS011;1936;47.074;15.336;2023-03-23T11:41:37;10.30;;;5.60;;
3841;SDS011;1936;47.074;15.336;2023-03-23T11:43:44;9.00;;;5.00;;
3841;SDS011;1936;47.074;15.336;2023-03-23T11:45:48;6.63;;;5.00;;
3841;SDS011;1936;47.074;15.336;2023-03-23T11:47:58;6.47;;;5.40;;
3841;SDS011;1936;47.074;15.336;2023-03-23T11:50:03;7.33;;;5.20;;
3841;SDS011;1936;47.074;15.336;2023-03-23T11:52:09;6.87;;;4.57;;
3841;SDS011;1936;47.074;15.336;2023-03-23T11:54:15;8.30;;;5.13;;
3841;SDS011;1936;47.074;15.336;2023-03-23T11:56:22;5.60;;;4.37;;
3841;SDS011;1936;47.074;15.336;2023-03-23T11:58:26;10.03;;;5.80;;
3841;SDS011;1936;47.074;15.336;2023-03-23T12:00:32;7.43;;;5.70;;
3841;SDS011;1936;47.074;15.336;2023-03-23T12:02:39;8.90;;;4.90;;
3841;SDS011;1936;47.074;15.336;2023-03-23T12:04:50;7.10;;;5.13;;
3841;SDS011;1936;47.074;15.336;2023-03-23T12:06:58;16.70;;;5.20;;
3841;SDS011;1936;47.074;15.336;2023-03-23T12:09:08;9.27;;;5.87;;
3841;SDS011;1936;47.074;15.336;2023-03-23T12:11:14;14.30;;;4.80;;
3841;SDS011;1936;47.074;15.336;2023-03-23T12:13:25;8.10;;;4.20;;
3841;SDS011;1936;47.074;15.336;2023-03-23T12:15:30;8.97;;;5.37;;
3841;SDS011;1936;47.074;15.336;2023-03-23T12:17:37;6.07;;;4.37;;
3841;SDS011;1936;47.074;15.336;2023-03-23T12:19:54;7.00;;;4.50;;
3841;SDS011;1936;47.074;15.336;2023-03-23T12:21:59;9.23;;;6.03;;
3841;SDS011;1936;47.074;15.336;2023-03-23T12:24:08;7.20;;;5.43;;
3841;SDS011;1936;47.074;15.336;2023-03-23T12:26:17;7.43;;;4.77;;
3841;SDS011;1936;47.074;15.336;2023-03-23T12:28:23;6.47;;;4.67;;
3841;SDS011;1936;47.074;15.336;2023-03-23T12:30:31;6.67;;;5.10;;
3841;SDS011;1936;47.074;15.336;2023-03-23T12:32:38;5.60;;;5.13;;
3841;SDS011;1936;47.074;15.336;2023-03-23T12:34:46;7.00;;;4.50;;
3841;SDS011;1936;47.074;15.336;2023-03-23T12:36:59;5.63;;;4.20;;
3841;SDS011;1936;47.074;15.336;2023-03-23T12:41:26;5.43;;;4.93;;